sensor_id;sensor_type;location;lat;lon;timestamp;P1;durP1;ratioP1;P2;durP2;ratioP2
60225;SDS011;46090;48.436;11.410;2023-06-01T00:02:03;3.17;;;1.17;;
60225;SDS011;46090;48.436;11.410;2023-06-01T00:04:30;3.28;;;1.02;;
60225;SDS011;46090;48.436;11.410;2023-06-01T00:06:57;3.33;;;1.35;;
60225;SDS011;46090;48.436;11.410;2023-06-01T00:09:26;3.05;;;1.02;;
60225;SDS011;46090;48.436;11.410;2023-06-01T00:11:53;3.15;;;1.30;;
60225;SDS011;46090;48.436;11.410;2023-06-01T00:14:20;4.10;;;1.52;;
60225;SDS011;46090;48.436;11.410;2023-06-01T00:16:46;4.28;;;1.42;;
60225;SDS011;46090;48.436;11.410;2023-06-01T00:19:13;3.50;;;1.15;;
60225;SDS011;46090;48.436;11.410;2023-06-01T00:21:40;4.25;;;1.15;;
60225;SDS011;46090;48.436;11.410;2023-06-01T00:24:07;4.00;;;1.40;;
60225;SDS011;46090;48.436;11.410;2023-06-01T00:26:34;3.80;;;1.20;;
60225;SDS011;46090;48.436;11.410;2023-06-01T00:29:01;2.85;;;0.80;;
60225;SDS011;46090;48.436;11.410;2023-06-01T00:31:27;3.70;;;1.23;;
60225;SDS011;46090;48.436;11.410;2023-06-01T00:33:54;3.47;;;1.25;;
60225;SDS011;46090;48.436;11.410;2023-06-01T00:36:21;3.67;;;1.30;;
60225;SDS011;46090;48.436;11.410;2023-06-01T00:38:47;4.05;;;1.08;;
60225;SDS011;46090;48.436;11.410;2023-06-01T00:41:14;4.03;;;1.20;;
60225;SDS011;46090;48.436;11.410;2023-06-01T00:43:41;3.20;;;1.10;;
60225;SDS011;46090;48.436;11.410;2023-06-01T00:46:07;4.68;;;1.00;;
60225;SDS011;46090;48.436;11.410;2023-06-01T00:48:35;4.38;;;1.33;;
60225;SDS011;46090;48.436;11.410;2023-06-01T00:51:02;2.70;;;1.10;;
60225;SDS011;46090;48.436;11.410;2023-06-01T00:53:29;3.28;;;1.27;;
60225;SDS011;46090;48.436;11.410;2023-06-01T00:55:56;3.05;;;1.20;;
60225;SDS011;46090;48.436;11.410;2023-06-01T00:58:23;2.60;;;1.13;;
60225;SDS011;46090;48.436;11.410;2023-06-01T01:00:49;3.15;;;1.02;;
60225;SDS011;46090;48.436;11.410;2023-06-01T01:03:20;3.83;;;1.00;;
60225;SDS011;46090;48.436;11.410;2023-06-01T01:05:48;3.83;;;1.17;;
60225;SDS011;46090;48.436;11.410;2023-06-01T01:08:21;3.67;;;0.90;;
60225;SDS011;46090;48.436;11.410;2023-06-01T01:11:09;3.95;;;1.10;;
60225;SDS011;46090;48.436;11.410;2023-06-01T01:16:26;3.47;;;1.08;;
60225;SDS011;46090;48.436;11.410;2023-06-01T01:18:57;5.53;;;1.20;;
60225;SDS011;46090;48.436;11.410;2023-06-01T01:21:35;3.00;;;1.00;;
60225;SDS011;46090;48.436;11.410;2023-06-01T01:29:59;3.30;;;1.08;;
60225;SDS011;46090;48.436;11.410;2023-06-01T01:32:32;3.38;;;1.17;;
60225;SDS011;46090;48.436;11.410;2023-06-01T01:34:59;2.42;;;0.90;;
60225;SDS011;46090;48.436;11.410;2023-06-01T01:37:27;3.20;;;1.20;;
60225;SDS011;46090;48.436;11.410;2023-06-01T01:39:55;2.97;;;1.05;;
60225;SDS011;46090;48.436;11.410;2023-06-01T01:42:22;3.08;;;1.08;;
60225;SDS011;46090;48.436;11.410;2023-06-01T01:44:48;3.03;;;0.98;;
60225;SDS011;46090;48.436;11.410;2023-06-01T01:47:20;2.67;;;0.88;;
60225;SDS011;46090;48.436;11.410;2023-06-01T01:49:56;3.25;;;0.77;;
60225;SDS011;46090;48.436;11.410;2023-06-01T01:52:25;3.45;;;1.25;;
60225;SDS011;46090;48.436;11.410;2023-06-01T01:55:07;3.20;;;1.20;;
60225;SDS011;46090;48.436;11.410;2023-06-01T01:57:34;3.17;;;1.20;;
60225;SDS011;46090;48.436;11.410;2023-06-01T02:00:03;3.03;;;1.10;;
60225;SDS011;46090;48.436;11.410;2023-06-01T02:02:38;2.65;;;0.93;;
60225;SDS011;46090;48.436;11.410;2023-06-01T02:05:05;2.85;;;1.05;;
60225;SDS011;46090;48.436;11.410;2023-06-01T02:07:32;2.60;;;0.90;;
60225;SDS011;46090;48.436;11.410;2023-06-01T02:10:03;3.03;;;0.95;;
60225;SDS011;46090;48.436;11.410;2023-06-01T02:12:31;4.00;;;1.15;;
60225;SDS011;46090;48.436;11.410;2023-06-01T02:14:58;3.25;;;1.10;;
60225;SDS011;46090;48.436;11.410;2023-06-01T02:17:25;3.03;;;1.00;;
60225;SDS011;46090;48.436;11.410;2023-06-01T02:19:53;2.97;;;1.10;;
60225;SDS011;46090;48.436;11.410;2023-06-01T02:22:20;2.92;;;1.05;;
60225;SDS011;46090;48.436;11.410;2023-06-01T02:24:47;2.55;;;0.90;;
60225;SDS011;46090;48.436;11.410;2023-06-01T02:27:13;3.35;;;1.38;;
60225;SDS011;46090;48.436;11.410;2023-06-01T02:29:40;2.83;;;1.10;;
60225;SDS011;46090;48.436;11.410;2023-06-01T02:32:07;2.80;;;1.00;;
60225;SDS011;46090;48.436;11.410;2023-06-01T02:34:35;3.40;;;1.35;;
60225;SDS011;46090;48.436;11.410;2023-06-01T02:37:03;3.45;;;1.13;;
60225;SDS011;46090;48.436;11.410;2023-06-01T02:39:31;3.22;;;1.10;;
60225;SDS011;46090;48.436;11.410;2023-06-01T02:41:58;3.63;;;1.10;;
60225;SDS011;46090;48.436;11.410;2023-06-01T02:44:25;2.90;;;1.30;;
60225;SDS011;46090;48.436;11.410;2023-06-01T02:46:51;3.03;;;1.13;;
60225;SDS011;46090;48.436;11.410;2023-06-01T02:49:18;3.55;;;1.00;;
60225;SDS011;46090;48.436;11.410;2023-06-01T02:51:45;3.67;;;1.38;;
60225;SDS011;46090;48.436;11.410;2023-06-01T02:54:17;4.00;;;1.30;;
60225;SDS011;46090;48.436;11.410;2023-06-01T02:56:44;3.38;;;1.23;;
60225;SDS011;46090;48.436;11.410;2023-06-01T02:59:18;3.78;;;1.15;;
60225;SDS011;46090;48.436;11.410;2023-06-01T03:01:49;3.42;;;1.27;;
60225;SDS011;46090;48.436;11.410;2023-06-01T03:04:16;2.40;;;1.00;;
60225;SDS011;46090;48.436;11.410;2023-06-01T03:06:44;2.80;;;0.90;;
60225;SDS011;46090;48.436;11.410;2023-06-01T03:09:27;3.30;;;1.10;;
60225;SDS011;46090;48.436;11.410;2023-06-01T03:12:11;3.97;;;1.20;;
60225;SDS011;46090;48.436;11.410;2023-06-01T03:14:39;3.00;;;0.90;;
60225;SDS011;46090;48.436;11.410;2023-06-01T03:17:06;2.67;;;0.85;;
60225;SDS011;46090;48.436;11.410;2023-06-01T03:19:34;3.30;;;1.00;;
60225;SDS011;46090;48.436;11.410;2023-06-01T03:22:08;3.10;;;0.90;;
60225;SDS011;46090;48.436;11.410;2023-06-01T03:24:35;1.85;;;0.80;;
60225;SDS011;46090;48.436;11.410;2023-06-01T03:27:03;2.78;;;0.82;;
60225;SDS011;46090;48.436;11.410;2023-06-01T03:29:33;3.55;;;1.17;;
60225;SDS011;46090;48.436;11.410;2023-06-01T03:32:00;2.63;;;0.85;;
60225;SDS011;46090;48.436;11.410;2023-06-01T03:34:27;5.10;;;1.30;;
60225;SDS011;46090;48.436;11.410;2023-06-01T03:36:54;4.05;;;1.05;;
60225;SDS011;46090;48.436;11.410;2023-06-01T03:39:22;4.05;;;1.02;;
60225;SDS011;46090;48.436;11.410;2023-06-01T03:41:49;3.67;;;0.93;;
60225;SDS011;46090;48.436;11.410;2023-06-01T03:44:16;4.47;;;1.23;;
60225;SDS011;46090;48.436;11.410;2023-06-01T03:46:44;3.25;;;1.20;;
60225;SDS011;46090;48.436;11.410;2023-06-01T03:49:12;2.30;;;0.77;;
60225;SDS011;46090;48.436;11.410;2023-06-01T03:51:38;3.38;;;1.13;;
60225;SDS011;46090;48.436;11.410;2023-06-01T03:54:05;3.45;;;0.80;;
60225;SDS011;46090;48.436;11.410;2023-06-01T03:56:32;2.20;;;0.80;;
60225;SDS011;46090;48.436;11.410;2023-06-01T03:59:01;2.90;;;1.10;;
60225;SDS011;46090;48.436;11.410;2023-06-01T04:01:28;4.43;;;0.70;;
60225;SDS011;46090;48.436;11.410;2023-06-01T04:03:56;2.47;;;0.80;;
60225;SDS011;46090;48.436;11.410;2023-06-01T04:06:23;4.78;;;0.90;;
60225;SDS011;46090;48.436;11.410;2023-06-01T04:08:51;3.17;;;0.70;;
60225;SDS011;46090;48.436;11.410;2023-06-01T04:11:22;2.13;;;0.70;;
60225;SDS011;46090;48.436;11.410;2023-06-01T04:13:50;2.80;;;0.70;;
60225;SDS011;46090;48.436;11.410;2023-06-01T04:16:17;2.63;;;0.90;;
60225;SDS011;46090;48.436;11.410;2023-06-01T04:18:45;3.65;;;0.93;;
60225;SDS011;46090;48.436;11.410;2023-06-01T04:21:16;4.15;;;1.00;;
60225;SDS011;46090;48.436;11.410;2023-06-01T04:23:44;7.07;;;1.40;;
60225;SDS011;46090;48.436;11.410;2023-06-01T04:26:13;4.78;;;0.88;;
60225;SDS011;46090;48.436;11.410;2023-06-01T04:28:40;3.42;;;0.82;;
60225;SDS011;46090;48.436;11.410;2023-06-01T04:31:11;4.47;;;1.35;;
60225;SDS011;46090;48.436;11.410;2023-06-01T04:33:44;4.85;;;1.20;;
60225;SDS011;46090;48.436;11.410;2023-06-01T04:36:14;5.63;;;1.02;;
60225;SDS011;46090;48.436;11.410;2023-06-01T04:38:51;7.45;;;1.05;;
60225;SDS011;46090;48.436;11.410;2023-06-01T04:41:22;4.78;;;1.33;;
60225;SDS011;46090;48.436;11.410;2023-06-01T04:43:49;4.25;;;1.35;;
60225;SDS011;46090;48.436;11.410;2023-06-01T04:46:22;4.22;;;1.10;;
60225;SDS011;46090;48.436;11.410;2023-06-01T04:48:54;3.85;;;1.10;;
60225;SDS011;46090;48.436;11.410;2023-06-01T04:51:25;5.07;;;0.95;;
60225;SDS011;46090;48.436;11.410;2023-06-01T04:53:53;3.30;;;1.00;;
60225;SDS011;46090;48.436;11.410;2023-06-01T04:56:23;5.70;;;1.42;;
60225;SDS011;46090;48.436;11.410;2023-06-01T04:58:54;4.80;;;1.10;;
60225;SDS011;46090;48.436;11.410;2023-06-01T05:01:22;4.85;;;1.17;;
60225;SDS011;46090;48.436;11.410;2023-06-01T05:03:52;3.05;;;1.00;;
60225;SDS011;46090;48.436;11.410;2023-06-01T05:06:21;3.65;;;1.00;;
60225;SDS011;46090;48.436;11.410;2023-06-01T05:08:48;4.75;;;1.20;;
60225;SDS011;46090;48.436;11.410;2023-06-01T05:11:16;6.00;;;1.40;;
60225;SDS011;46090;48.436;11.410;2023-06-01T05:13:43;3.45;;;1.25;;
60225;SDS011;46090;48.436;11.410;2023-06-01T05:16:11;5.45;;;1.23;;
60225;SDS011;46090;48.436;11.410;2023-06-01T05:18:38;4.55;;;1.38;;
60225;SDS011;46090;48.436;11.410;2023-06-01T05:21:05;7.22;;;1.40;;
60225;SDS011;46090;48.436;11.410;2023-06-01T05:23:32;5.13;;;1.20;;
60225;SDS011;46090;48.436;11.410;2023-06-01T05:25:58;10.43;;;1.30;;
60225;SDS011;46090;48.436;11.410;2023-06-01T05:28:32;4.93;;;1.67;;
60225;SDS011;46090;48.436;11.410;2023-06-01T05:31:02;6.38;;;1.20;;
60225;SDS011;46090;48.436;11.410;2023-06-01T05:33:33;6.15;;;1.30;;
60225;SDS011;46090;48.436;11.410;2023-06-01T05:36:00;5.95;;;1.42;;
60225;SDS011;46090;48.436;11.410;2023-06-01T05:38:27;9.32;;;1.65;;
60225;SDS011;46090;48.436;11.410;2023-06-01T05:40:54;6.70;;;1.50;;
60225;SDS011;46090;48.436;11.410;2023-06-01T05:43:20;11.48;;;1.65;;
60225;SDS011;46090;48.436;11.410;2023-06-01T05:45:47;5.93;;;1.77;;
60225;SDS011;46090;48.436;11.410;2023-06-01T05:48:14;9.00;;;2.08;;
60225;SDS011;46090;48.436;11.410;2023-06-01T05:50:46;8.70;;;1.75;;
60225;SDS011;46090;48.436;11.410;2023-06-01T05:53:13;10.15;;;1.67;;
60225;SDS011;46090;48.436;11.410;2023-06-01T05:55:40;12.57;;;1.63;;
60225;SDS011;46090;48.436;11.410;2023-06-01T05:58:08;7.35;;;1.80;;
60225;SDS011;46090;48.436;11.410;2023-06-01T06:00:34;9.45;;;2.30;;
60225;SDS011;46090;48.436;11.410;2023-06-01T06:03:03;8.80;;;2.60;;
60225;SDS011;46090;48.436;11.410;2023-06-01T06:05:30;8.95;;;2.40;;
60225;SDS011;46090;48.436;11.410;2023-06-01T06:07:57;11.35;;;2.30;;
60225;SDS011;46090;48.436;11.410;2023-06-01T06:10:24;5.75;;;1.60;;
60225;SDS011;46090;48.436;11.410;2023-06-01T06:12:50;5.88;;;1.80;;
60225;SDS011;46090;48.436;11.410;2023-06-01T06:15:17;6.82;;;1.65;;
60225;SDS011;46090;48.436;11.410;2023-06-01T06:17:44;5.70;;;1.52;;
60225;SDS011;46090;48.436;11.410;2023-06-01T06:20:11;4.45;;;1.70;;
60225;SDS011;46090;48.436;11.410;2023-06-01T06:22:38;5.60;;;1.50;;
60225;SDS011;46090;48.436;11.410;2023-06-01T06:25:05;5.22;;;1.92;;
60225;SDS011;46090;48.436;11.410;2023-06-01T06:27:32;6.00;;;1.92;;
60225;SDS011;46090;48.436;11.410;2023-06-01T06:29:59;6.38;;;1.77;;
60225;SDS011;46090;48.436;11.410;2023-06-01T06:32:27;4.40;;;1.65;;
60225;SDS011;46090;48.436;11.410;2023-06-01T06:34:54;4.93;;;1.63;;
60225;SDS011;46090;48.436;11.410;2023-06-01T06:37:20;8.73;;;1.70;;
60225;SDS011;46090;48.436;11.410;2023-06-01T06:39:47;4.10;;;1.63;;
60225;SDS011;46090;48.436;11.410;2023-06-01T06:42:14;5.80;;;1.73;;
60225;SDS011;46090;48.436;11.410;2023-06-01T06:44:41;4.25;;;1.42;;
60225;SDS011;46090;48.436;11.410;2023-06-01T06:47:07;6.13;;;1.50;;
60225;SDS011;46090;48.436;11.410;2023-06-01T06:49:34;10.93;;;2.00;;
60225;SDS011;46090;48.436;11.410;2023-06-01T06:52:01;6.88;;;1.63;;
60225;SDS011;46090;48.436;11.410;2023-06-01T06:54:28;8.80;;;1.63;;
60225;SDS011;46090;48.436;11.410;2023-06-01T06:56:54;5.57;;;1.50;;
60225;SDS011;46090;48.436;11.410;2023-06-01T06:59:21;8.23;;;1.88;;
60225;SDS011;46090;48.436;11.410;2023-06-01T07:01:48;5.20;;;1.50;;
60225;SDS011;46090;48.436;11.410;2023-06-01T07:04:15;7.03;;;1.98;;
60225;SDS011;46090;48.436;11.410;2023-06-01T07:06:41;6.13;;;1.52;;
60225;SDS011;46090;48.436;11.410;2023-06-01T07:09:08;5.88;;;1.45;;
60225;SDS011;46090;48.436;11.410;2023-06-01T07:11:35;5.57;;;1.50;;
60225;SDS011;46090;48.436;11.410;2023-06-01T07:14:02;8.27;;;1.42;;
60225;SDS011;46090;48.436;11.410;2023-06-01T07:16:29;5.82;;;1.73;;
60225;SDS011;46090;48.436;11.410;2023-06-01T07:18:56;7.20;;;1.50;;
60225;SDS011;46090;48.436;11.410;2023-06-01T07:21:23;4.60;;;1.60;;
60225;SDS011;46090;48.436;11.410;2023-06-01T07:23:49;7.10;;;1.55;;
60225;SDS011;46090;48.436;11.410;2023-06-01T07:26:16;8.23;;;1.52;;
60225;SDS011;46090;48.436;11.410;2023-06-01T07:28:43;6.55;;;1.58;;
60225;SDS011;46090;48.436;11.410;2023-06-01T07:31:09;4.93;;;1.52;;
60225;SDS011;46090;48.436;11.410;2023-06-01T07:33:36;5.60;;;1.50;;
60225;SDS011;46090;48.436;11.410;2023-06-01T07:36:05;4.40;;;1.38;;
60225;SDS011;46090;48.436;11.410;2023-06-01T07:38:33;6.22;;;1.67;;
60225;SDS011;46090;48.436;11.410;2023-06-01T07:40:59;6.47;;;1.70;;
60225;SDS011;46090;48.436;11.410;2023-06-01T07:43:27;5.70;;;1.52;;
60225;SDS011;46090;48.436;11.410;2023-06-01T07:45:54;4.32;;;1.48;;
60225;SDS011;46090;48.436;11.410;2023-06-01T07:48:21;6.93;;;1.70;;
60225;SDS011;46090;48.436;11.410;2023-06-01T07:50:47;5.63;;;1.48;;
60225;SDS011;46090;48.436;11.410;2023-06-01T07:53:14;3.55;;;1.23;;
60225;SDS011;46090;48.436;11.410;2023-06-01T07:55:41;6.93;;;1.60;;
60225;SDS011;46090;48.436;11.410;2023-06-01T07:58:09;4.78;;;1.50;;
60225;SDS011;46090;48.436;11.410;2023-06-01T08:00:36;5.90;;;1.55;;
60225;SDS011;46090;48.436;11.410;2023-06-01T08:03:03;7.07;;;1.83;;
60225;SDS011;46090;48.436;11.410;2023-06-01T08:05:33;5.78;;;1.80;;
60225;SDS011;46090;48.436;11.410;2023-06-01T08:08:04;5.57;;;1.45;;
60225;SDS011;46090;48.436;11.410;2023-06-01T08:10:31;5.10;;;1.52;;
60225;SDS011;46090;48.436;11.410;2023-06-01T08:12:58;4.18;;;1.55;;
60225;SDS011;46090;48.436;11.410;2023-06-01T08:15:25;7.78;;;1.60;;
60225;SDS011;46090;48.436;11.410;2023-06-01T08:17:52;6.60;;;1.55;;
60225;SDS011;46090;48.436;11.410;2023-06-01T08:20:19;7.20;;;1.50;;
60225;SDS011;46090;48.436;11.410;2023-06-01T08:22:48;6.18;;;1.58;;
60225;SDS011;46090;48.436;11.410;2023-06-01T08:25:15;5.88;;;1.85;;
60225;SDS011;46090;48.436;11.410;2023-06-01T08:27:42;5.53;;;1.55;;
60225;SDS011;46090;48.436;11.410;2023-06-01T08:30:09;6.95;;;1.50;;
60225;SDS011;46090;48.436;11.410;2023-06-01T08:32:37;5.75;;;1.48;;
60225;SDS011;46090;48.436;11.410;2023-06-01T08:35:06;3.92;;;1.33;;
60225;SDS011;46090;48.436;11.410;2023-06-01T08:37:34;8.48;;;1.80;;
60225;SDS011;46090;48.436;11.410;2023-06-01T08:40:01;8.45;;;1.63;;
60225;SDS011;46090;48.436;11.410;2023-06-01T08:42:49;8.25;;;1.75;;
60225;SDS011;46090;48.436;11.410;2023-06-01T08:45:18;6.07;;;1.70;;
60225;SDS011;46090;48.436;11.410;2023-06-01T08:47:45;7.50;;;1.80;;
60225;SDS011;46090;48.436;11.410;2023-06-01T08:50:13;5.57;;;1.85;;
60225;SDS011;46090;48.436;11.410;2023-06-01T08:52:41;6.13;;;1.70;;
60225;SDS011;46090;48.436;11.410;2023-06-01T08:55:09;5.35;;;1.88;;
60225;SDS011;46090;48.436;11.410;2023-06-01T08:57:37;5.38;;;1.45;;
60225;SDS011;46090;48.436;11.410;2023-06-01T09:00:07;7.20;;;1.77;;
60225;SDS011;46090;48.436;11.410;2023-06-01T09:02:35;6.18;;;1.70;;
60225;SDS011;46090;48.436;11.410;2023-06-01T09:05:01;5.60;;;1.33;;
60225;SDS011;46090;48.436;11.410;2023-06-01T09:07:28;3.88;;;1.67;;
60225;SDS011;46090;48.436;11.410;2023-06-01T09:09:59;5.28;;;1.70;;
60225;SDS011;46090;48.436;11.410;2023-06-01T09:12:26;6.43;;;1.30;;
60225;SDS011;46090;48.436;11.410;2023-06-01T09:15:15;4.22;;;1.50;;
60225;SDS011;46090;48.436;11.410;2023-06-01T09:17:49;5.43;;;1.75;;
60225;SDS011;46090;48.436;11.410;2023-06-01T09:22:50;5.30;;;1.27;;
60225;SDS011;46090;48.436;11.410;2023-06-01T09:25:17;6.65;;;1.65;;
60225;SDS011;46090;48.436;11.410;2023-06-01T09:27:51;5.38;;;1.52;;
60225;SDS011;46090;48.436;11.410;2023-06-01T09:30:19;6.07;;;1.83;;
60225;SDS011;46090;48.436;11.410;2023-06-01T09:32:47;4.97;;;1.63;;
60225;SDS011;46090;48.436;11.410;2023-06-01T09:38:06;4.40;;;1.17;;
60225;SDS011;46090;48.436;11.410;2023-06-01T09:40:33;5.22;;;1.50;;
60225;SDS011;46090;48.436;11.410;2023-06-01T09:43:03;6.43;;;1.70;;
60225;SDS011;46090;48.436;11.410;2023-06-01T09:45:30;6.22;;;1.67;;
60225;SDS011;46090;48.436;11.410;2023-06-01T09:48:14;5.15;;;1.73;;
60225;SDS011;46090;48.436;11.410;2023-06-01T09:50:43;7.10;;;1.25;;
60225;SDS011;46090;48.436;11.410;2023-06-01T09:53:10;4.00;;;1.30;;
60225;SDS011;46090;48.436;11.410;2023-06-01T09:55:42;5.85;;;1.70;;
60225;SDS011;46090;48.436;11.410;2023-06-01T09:58:24;5.25;;;1.80;;
60225;SDS011;46090;48.436;11.410;2023-06-01T10:00:51;4.68;;;1.55;;
60225;SDS011;46090;48.436;11.410;2023-06-01T10:03:19;9.52;;;1.80;;
60225;SDS011;46090;48.436;11.410;2023-06-01T10:05:47;5.07;;;1.95;;
60225;SDS011;46090;48.436;11.410;2023-06-01T10:08:15;5.03;;;1.67;;
60225;SDS011;46090;48.436;11.410;2023-06-01T10:10:44;4.88;;;1.70;;
60225;SDS011;46090;48.436;11.410;2023-06-01T10:13:12;7.20;;;1.73;;
60225;SDS011;46090;48.436;11.410;2023-06-01T10:15:39;6.45;;;1.58;;
60225;SDS011;46090;48.436;11.410;2023-06-01T10:18:06;3.58;;;1.40;;
60225;SDS011;46090;48.436;11.410;2023-06-01T10:20:33;4.43;;;1.60;;
60225;SDS011;46090;48.436;11.410;2023-06-01T10:23:01;5.47;;;1.92;;
60225;SDS011;46090;48.436;11.410;2023-06-01T10:25:33;6.25;;;1.90;;
60225;SDS011;46090;48.436;11.410;2023-06-01T10:28:05;4.72;;;1.70;;
60225;SDS011;46090;48.436;11.410;2023-06-01T10:30:34;9.43;;;1.75;;
60225;SDS011;46090;48.436;11.410;2023-06-01T10:33:01;5.72;;;1.80;;
60225;SDS011;46090;48.436;11.410;2023-06-01T10:40:39;4.88;;;1.67;;
60225;SDS011;46090;48.436;11.410;2023-06-01T10:43:07;4.47;;;1.45;;
60225;SDS011;46090;48.436;11.410;2023-06-01T10:45:38;6.18;;;1.80;;
60225;SDS011;46090;48.436;11.410;2023-06-01T10:48:06;5.65;;;1.55;;
60225;SDS011;46090;48.436;11.410;2023-06-01T10:50:38;5.47;;;1.90;;
60225;SDS011;46090;48.436;11.410;2023-06-01T11:01:44;3.25;;;1.58;;
60225;SDS011;46090;48.436;11.410;2023-06-01T11:04:12;5.68;;;1.80;;
60225;SDS011;46090;48.436;11.410;2023-06-01T11:06:40;5.75;;;1.75;;
60225;SDS011;46090;48.436;11.410;2023-06-01T11:09:10;4.13;;;1.80;;
60225;SDS011;46090;48.436;11.410;2023-06-01T11:14:22;6.10;;;1.80;;
60225;SDS011;46090;48.436;11.410;2023-06-01T11:16:51;5.50;;;1.90;;
60225;SDS011;46090;48.436;11.410;2023-06-01T11:19:25;4.45;;;1.80;;
60225;SDS011;46090;48.436;11.410;2023-06-01T11:21:56;4.20;;;1.67;;
60225;SDS011;46090;48.436;11.410;2023-06-01T11:24:32;4.88;;;1.70;;
60225;SDS011;46090;48.436;11.410;2023-06-01T11:27:04;4.63;;;1.63;;
60225;SDS011;46090;48.436;11.410;2023-06-01T11:29:35;5.38;;;1.88;;
60225;SDS011;46090;48.436;11.410;2023-06-01T11:32:03;4.88;;;1.80;;
60225;SDS011;46090;48.436;11.410;2023-06-01T11:34:32;6.57;;;2.08;;
60225;SDS011;46090;48.436;11.410;2023-06-01T11:37:14;5.07;;;2.10;;
60225;SDS011;46090;48.436;11.410;2023-06-01T11:39:42;6.37;;;1.97;;
60225;SDS011;46090;48.436;11.410;2023-06-01T11:44:37;5.95;;;1.77;;
60225;SDS011;46090;48.436;11.410;2023-06-01T11:47:04;6.35;;;1.70;;
60225;SDS011;46090;48.436;11.410;2023-06-01T11:49:43;5.85;;;1.73;;
60225;SDS011;46090;48.436;11.410;2023-06-01T11:52:16;4.78;;;1.73;;
60225;SDS011;46090;48.436;11.410;2023-06-01T11:54:44;6.07;;;1.90;;
60225;SDS011;46090;48.436;11.410;2023-06-01T11:57:11;4.15;;;1.42;;
60225;SDS011;46090;48.436;11.410;2023-06-01T11:59:48;4.15;;;1.60;;
60225;SDS011;46090;48.436;11.410;2023-06-01T12:02:26;4.72;;;1.67;;
60225;SDS011;46090;48.436;11.410;2023-06-01T12:05:01;5.32;;;1.67;;
60225;SDS011;46090;48.436;11.410;2023-06-01T12:07:43;5.63;;;1.85;;
60225;SDS011;46090;48.436;11.410;2023-06-01T12:12:40;4.20;;;1.67;;
60225;SDS011;46090;48.436;11.410;2023-06-01T12:15:10;5.97;;;1.98;;
60225;SDS011;46090;48.436;11.410;2023-06-01T12:17:50;7.30;;;1.90;;
60225;SDS011;46090;48.436;11.410;2023-06-01T12:20:27;4.30;;;1.90;;
60225;SDS011;46090;48.436;11.410;2023-06-01T12:22:55;4.25;;;2.10;;
60225;SDS011;46090;48.436;11.410;2023-06-01T12:25:23;5.03;;;1.90;;
60225;SDS011;46090;48.436;11.410;2023-06-01T12:28:01;4.32;;;1.80;;
60225;SDS011;46090;48.436;11.410;2023-06-01T12:30:29;4.57;;;2.00;;
60225;SDS011;46090;48.436;11.410;2023-06-01T12:32:55;3.08;;;1.63;;
60225;SDS011;46090;48.436;11.410;2023-06-01T12:35:22;4.78;;;2.20;;
60225;SDS011;46090;48.436;11.410;2023-06-01T12:38:05;4.18;;;1.58;;
60225;SDS011;46090;48.436;11.410;2023-06-01T12:40:33;5.90;;;2.10;;
60225;SDS011;46090;48.436;11.410;2023-06-01T12:43:00;3.95;;;1.80;;
60225;SDS011;46090;48.436;11.410;2023-06-01T12:45:36;4.75;;;1.90;;
60225;SDS011;46090;48.436;11.410;2023-06-01T12:48:04;4.68;;;1.55;;
60225;SDS011;46090;48.436;11.410;2023-06-01T12:50:31;4.10;;;2.03;;
60225;SDS011;46090;48.436;11.410;2023-06-01T12:52:58;5.55;;;1.58;;
60225;SDS011;46090;48.436;11.410;2023-06-01T12:55:25;5.63;;;1.85;;
60225;SDS011;46090;48.436;11.410;2023-06-01T12:57:52;3.97;;;1.58;;
60225;SDS011;46090;48.436;11.410;2023-06-01T13:00:20;5.85;;;1.90;;
60225;SDS011;46090;48.436;11.410;2023-06-01T13:02:49;5.00;;;1.90;;
60225;SDS011;46090;48.436;11.410;2023-06-01T13:05:19;5.60;;;1.70;;
60225;SDS011;46090;48.436;11.410;2023-06-01T13:07:46;5.80;;;1.73;;
60225;SDS011;46090;48.436;11.410;2023-06-01T13:10:13;6.60;;;1.67;;
60225;SDS011;46090;48.436;11.410;2023-06-01T13:12:40;6.72;;;1.52;;
60225;SDS011;46090;48.436;11.410;2023-06-01T13:15:07;5.47;;;1.90;;
60225;SDS011;46090;48.436;11.410;2023-06-01T13:17:34;4.80;;;1.77;;
60225;SDS011;46090;48.436;11.410;2023-06-01T13:20:01;5.60;;;2.20;;
60225;SDS011;46090;48.436;11.410;2023-06-01T13:22:30;5.50;;;1.70;;
60225;SDS011;46090;48.436;11.410;2023-06-01T13:24:57;4.53;;;1.58;;
60225;SDS011;46090;48.436;11.410;2023-06-01T13:27:31;5.40;;;2.13;;
60225;SDS011;46090;48.436;11.410;2023-06-01T13:30:00;5.30;;;1.65;;
60225;SDS011;46090;48.436;11.410;2023-06-01T13:32:27;6.97;;;1.80;;
60225;SDS011;46090;48.436;11.410;2023-06-01T13:34:54;3.90;;;1.75;;
60225;SDS011;46090;48.436;11.410;2023-06-01T13:37:22;4.80;;;1.98;;
60225;SDS011;46090;48.436;11.410;2023-06-01T13:39:49;6.50;;;2.10;;
60225;SDS011;46090;48.436;11.410;2023-06-01T13:42:16;5.78;;;1.90;;
60225;SDS011;46090;48.436;11.410;2023-06-01T13:44:46;7.53;;;2.00;;
60225;SDS011;46090;48.436;11.410;2023-06-01T13:47:13;8.35;;;1.70;;
60225;SDS011;46090;48.436;11.410;2023-06-01T13:49:43;13.68;;;2.20;;
60225;SDS011;46090;48.436;11.410;2023-06-01T13:52:10;11.02;;;1.80;;
60225;SDS011;46090;48.436;11.410;2023-06-01T13:54:37;5.57;;;1.77;;
60225;SDS011;46090;48.436;11.410;2023-06-01T13:57:04;6.90;;;2.05;;
60225;SDS011;46090;48.436;11.410;2023-06-01T13:59:32;3.95;;;1.60;;
60225;SDS011;46090;48.436;11.410;2023-06-01T14:02:04;5.20;;;2.00;;
60225;SDS011;46090;48.436;11.410;2023-06-01T14:04:31;6.38;;;1.50;;
60225;SDS011;46090;48.436;11.410;2023-06-01T14:06:58;8.15;;;1.80;;
60225;SDS011;46090;48.436;11.410;2023-06-01T14:09:25;6.15;;;1.90;;
60225;SDS011;46090;48.436;11.410;2023-06-01T14:11:52;4.57;;;1.83;;
60225;SDS011;46090;48.436;11.410;2023-06-01T14:14:19;4.63;;;2.08;;
60225;SDS011;46090;48.436;11.410;2023-06-01T14:16:45;4.38;;;1.85;;
60225;SDS011;46090;48.436;11.410;2023-06-01T14:19:12;5.80;;;1.70;;
60225;SDS011;46090;48.436;11.410;2023-06-01T14:21:39;5.35;;;1.65;;
60225;SDS011;46090;48.436;11.410;2023-06-01T14:24:06;5.30;;;1.77;;
60225;SDS011;46090;48.436;11.410;2023-06-01T14:26:33;4.65;;;2.05;;
60225;SDS011;46090;48.436;11.410;2023-06-01T14:28:59;6.32;;;1.75;;
60225;SDS011;46090;48.436;11.410;2023-06-01T14:31:26;5.45;;;1.90;;
60225;SDS011;46090;48.436;11.410;2023-06-01T14:33:53;6.15;;;2.10;;
60225;SDS011;46090;48.436;11.410;2023-06-01T14:36:19;7.50;;;2.05;;
60225;SDS011;46090;48.436;11.410;2023-06-01T14:38:49;5.65;;;2.00;;
60225;SDS011;46090;48.436;11.410;2023-06-01T14:41:16;7.57;;;2.30;;
60225;SDS011;46090;48.436;11.410;2023-06-01T14:43:43;7.03;;;2.13;;
60225;SDS011;46090;48.436;11.410;2023-06-01T14:46:09;6.78;;;2.25;;
60225;SDS011;46090;48.436;11.410;2023-06-01T14:48:36;8.40;;;2.20;;
60225;SDS011;46090;48.436;11.410;2023-06-01T14:51:03;12.38;;;2.63;;
60225;SDS011;46090;48.436;11.410;2023-06-01T14:53:30;6.47;;;2.20;;
60225;SDS011;46090;48.436;11.410;2023-06-01T14:55:57;7.50;;;2.60;;
60225;SDS011;46090;48.436;11.410;2023-06-01T14:58:24;8.27;;;2.50;;
60225;SDS011;46090;48.436;11.410;2023-06-01T15:00:51;7.03;;;2.47;;
60225;SDS011;46090;48.436;11.410;2023-06-01T15:03:18;5.07;;;2.13;;
60225;SDS011;46090;48.436;11.410;2023-06-01T15:05:44;6.60;;;2.03;;
60225;SDS011;46090;48.436;11.410;2023-06-01T15:08:11;6.53;;;2.33;;
60225;SDS011;46090;48.436;11.410;2023-06-01T15:10:38;6.25;;;2.17;;
60225;SDS011;46090;48.436;11.410;2023-06-01T15:13:04;6.30;;;2.28;;
60225;SDS011;46090;48.436;11.410;2023-06-01T15:15:31;4.90;;;2.30;;
60225;SDS011;46090;48.436;11.410;2023-06-01T15:17:58;5.03;;;2.13;;